Time;durP1;ratioP1;P1;durP2;ratioP2;P2;SDS_P1;SDS_P2;PMS_P1;PMS_P2;Temp;Humidity;BMP_temperature;BMP_pressure;BME280_temperature;BME280_humidity;BME280_pressure;Samples;Min_cycle;Max_cycle;Signal;HPM_P1;HPM_P2
2022/08/19 00:02:19;;;;;;;;;;;22.20;99.90;;;;;;4950287;29;20028;-65
2022/08/19 00:04:52;;;;;;;;;;;22.30;99.90;;;;;;4951371;29;20522;-64
2022/08/19 00:07:20;;;;;;;;;;;22.30;99.90;;;;;;4952961;28;20013;-64
2022/08/19 00:09:48;;;;;;;;;;;22.30;99.90;;;;;;4954160;28;20002;-63
2022/08/19 00:12:16;;;;;;;;;;;22.40;99.90;;;;;;4953826;28;19974;-64
2022/08/19 00:14:44;;;;;;;;;;;22.40;99.90;;;;;;4953241;29;19977;-64
2022/08/19 00:17:12;;;;;;;;;;;22.40;99.90;;;;;;4941069;29;20741;-64
2022/08/19 00:19:40;;;;;;;;;;;22.40;99.90;;;;;;4947349;28;20858;-64
2022/08/19 00:22:09;;;;;;;;;;;22.40;99.90;;;;;;4952266;29;20483;-64
2022/08/19 00:24:38;;;;;;;;;;;22.30;99.90;;;;;;4946275;29;20083;-63
2022/08/19 00:27:05;;;;;;;;;;;22.20;99.90;;;;;;4953116;29;20773;-64
2022/08/19 00:29:54;;;;;;;;;;;22.20;99.90;;;;;;4949881;29;20428;-63
2022/08/19 00:32:21;;;;;;;;;;;22.20;99.90;;;;;;4953399;28;20317;-64
2022/08/19 00:34:52;;;;;;;;;;;22.10;99.90;;;;;;4949075;28;20498;-64
2022/08/19 00:37:22;;;;;;;;;;;22.00;99.90;;;;;;4953011;29;20481;-64
2022/08/19 00:39:50;;;;;;;;;;;22.00;99.90;;;;;;4950344;28;20590;-64
2022/08/19 00:42:19;;;;;;;;;;;22.00;99.90;;;;;;4956516;28;20279;-64
2022/08/19 00:44:47;;;;;;;;;;;22.00;99.90;;;;;;4938984;29;20023;-64
2022/08/19 00:47:15;;;;;;;;;;;22.00;99.90;;;;;;4937545;29;20063;-64
2022/08/19 00:49:50;;;;;;;;;;;22.00;99.90;;;;;;4950629;29;19978;-64
2022/08/19 00:52:20;;;;;;;;;;;22.00;99.90;;;;;;4956322;29;20024;-64
2022/08/19 00:54:49;;;;;;;;;;;22.00;99.90;;;;;;4956330;29;20202;-64
2022/08/19 00:57:20;;;;;;;;;;;22.00;99.90;;;;;;4957438;28;20664;-64
2022/08/19 00:59:52;;;;;;;;;;;22.00;99.90;;;;;;4970859;28;20561;-64
2022/08/19 01:02:30;;;;;;;;;;;22.00;99.90;;;;;;4975491;28;21329;-64
2022/08/19 01:04:59;;;;;;;;;;;22.10;99.90;;;;;;4966048;28;20572;-64
2022/08/19 01:07:27;;;;;;;;;;;22.00;99.90;;;;;;4956020;29;21504;-65
2022/08/19 01:10:04;;;;;;;;;;;22.00;99.90;;;;;;4956026;28;20002;-64
2022/08/19 01:12:32;;;;;;;;;;;22.00;99.90;;;;;;4936900;29;19984;-65
2022/08/19 01:15:00;;;;;;;;;;;22.00;99.90;;;;;;4936984;29;20556;-65
2022/08/19 01:17:28;;;;;;;;;;;21.90;99.90;;;;;;4936900;29;19992;-64
2022/08/19 01:19:56;;;;;;;;;;;21.90;99.90;;;;;;4935389;29;20541;-64
2022/08/19 01:22:31;;;;;;;;;;;21.80;99.90;;;;;;4939810;28;19998;-64
2022/08/19 01:25:00;;;;;;;;;;;21.80;99.90;;;;;;4936824;29;20089;-64
2022/08/19 01:27:36;;;;;;;;;;;21.80;99.90;;;;;;4969819;28;25072;-64
2022/08/19 01:30:11;;;;;;;;;;;21.80;99.90;;;;;;4974848;28;20710;-64
2022/08/19 01:32:39;;;;;;;;;;;21.80;99.90;;;;;;4963397;28;20497;-64
2022/08/19 01:35:07;;;;;;;;;;;21.80;99.90;;;;;;4949386;28;19990;-64
2022/08/19 01:37:44;;;;;;;;;;;21.80;99.90;;;;;;4954683;28;20035;-63
2022/08/19 01:40:12;;;;;;;;;;;21.70;99.90;;;;;;4951842;28;20008;-64
2022/08/19 01:42:41;;;;;;;;;;;21.70;99.90;;;;;;4950618;29;20154;-64
2022/08/19 01:45:09;;;;;;;;;;;21.70;99.90;;;;;;4951651;29;19994;-64
2022/08/19 01:47:37;;;;;;;;;;;21.70;99.90;;;;;;4948567;29;19987;-64
2022/08/19 01:50:06;;;;;;;;;;;21.70;99.90;;;;;;4952044;28;20038;-64
2022/08/19 01:52:35;;;;;;;;;;;21.70;99.90;;;;;;4949469;29;20000;-63
2022/08/19 01:55:05;;;;;;;;;;;21.70;99.90;;;;;;4953220;29;19979;-63
2022/08/19 01:57:33;;;;;;;;;;;21.70;99.90;;;;;;4952227;29;19975;-64
2022/08/19 02:00:04;;;;;;;;;;;21.70;99.90;;;;;;4949501;28;20003;-64
2022/08/19 02:02:32;;;;;;;;;;;21.70;99.90;;;;;;4948875;29;19998;-64
2022/08/19 02:05:00;;;;;;;;;;;21.70;99.90;;;;;;4948493;28;20003;-64
2022/08/19 02:07:29;;;;;;;;;;;21.70;99.90;;;;;;4951383;29;20407;-64
2022/08/19 02:09:57;;;;;;;;;;;21.70;99.90;;;;;;4947998;28;19987;-64
2022/08/19 02:12:26;;;;;;;;;;;21.70;99.90;;;;;;4949166;29;19993;-64
2022/08/19 02:14:54;;;;;;;;;;;21.70;99.90;;;;;;4951004;29;19990;-64
2022/08/19 02:17:22;;;;;;;;;;;21.60;99.90;;;;;;4944386;29;20382;-64
2022/08/19 02:19:49;;;;;;;;;;;21.60;99.90;;;;;;4945330;28;19982;-64
2022/08/19 02:22:17;;;;;;;;;;;21.60;99.90;;;;;;4949145;29;20012;-64
2022/08/19 02:24:46;;;;;;;;;;;21.50;99.90;;;;;;4951332;29;19980;-64
2022/08/19 02:27:14;;;;;;;;;;;21.60;99.90;;;;;;4949341;29;19977;-63
2022/08/19 02:29:43;;;;;;;;;;;21.50;99.90;;;;;;4950378;28;19971;-64
2022/08/19 02:32:10;;;;;;;;;;;21.50;99.90;;;;;;4950122;29;20022;-63
2022/08/19 02:34:38;;;;;;;;;;;21.40;99.90;;;;;;4949113;29;19980;-63
2022/08/19 02:38:24;;;;;;;;;;;21.40;99.90;;;;;;4947771;29;19983;-63
2022/08/19 02:39:53;;;;;;;;;;;21.40;99.90;;;;;;4948682;28;19967;-64
2022/08/19 02:42:21;;;;;;;;;;;21.40;99.90;;;;;;4954434;29;20657;-63
2022/08/19 02:44:51;;;;;;;;;;;21.30;99.90;;;;;;4951595;28;20409;-63
2022/08/19 02:47:19;;;;;;;;;;;21.30;99.90;;;;;;4952063;28;20079;-64
2022/08/19 02:49:49;;;;;;;;;;;21.20;99.90;;;;;;4952130;28;21049;-63
2022/08/19 02:52:17;;;;;;;;;;;21.20;99.90;;;;;;4948826;29;20030;-64
2022/08/19 02:54:45;;;;;;;;;;;21.20;99.90;;;;;;4949495;29;19975;-64
2022/08/19 02:57:13;;;;;;;;;;;21.10;99.90;;;;;;4946409;29;19976;-64
2022/08/19 02:59:41;;;;;;;;;;;21.10;99.90;;;;;;4948357;28;19990;-64
2022/08/19 03:02:10;;;;;;;;;;;21.00;99.90;;;;;;4981044;23;20019;-63
2022/08/19 03:04:38;;;;;;;;;;;21.00;99.90;;;;;;5033719;28;20068;-64
2022/08/19 03:07:06;;;;;;;;;;;20.90;99.90;;;;;;5040980;28;20527;-64
2022/08/19 03:09:38;;;;;;;;;;;20.90;99.90;;;;;;5036512;28;20049;-63
2022/08/19 03:12:06;;;;;;;;;;;20.90;99.90;;;;;;5041693;28;20026;-64
2022/08/19 03:14:34;;;;;;;;;;;20.90;99.90;;;;;;5042471;28;20020;-64
2022/08/19 03:17:03;;;;;;;;;;;20.90;99.90;;;;;;5044669;28;19992;-64
2022/08/19 03:19:32;;;;;;;;;;;20.90;99.90;;;;;;5063078;28;20009;-63
2022/08/19 03:22:00;;;;;;;;;;;20.90;99.90;;;;;;5044943;28;19971;-63
2022/08/19 03:24:28;;;;;;;;;;;20.90;99.90;;;;;;5043542;28;19995;-63
2022/08/19 03:26:57;;;;;;;;;;;20.80;99.90;;;;;;5037056;28;20001;-63
2022/08/19 03:29:25;;;;;;;;;;;20.80;99.90;;;;;;5044598;28;19967;-64
2022/08/19 03:32:00;;;;;;;;;;;20.80;99.90;;;;;;5051010;28;20411;-63
2022/08/19 03:34:29;;;;;;;;;;;20.80;99.90;;;;;;5044237;28;20468;-64
2022/08/19 03:36:59;;;;;;;;;;;20.80;99.90;;;;;;5032704;28;19994;-63
2022/08/19 03:39:27;;;;;;;;;;;20.80;99.90;;;;;;5040932;28;19973;-63
2022/08/19 03:41:56;;;;;;;;;;;20.70;99.90;;;;;;5042869;28;19993;-63
2022/08/19 03:44:45;;;;;;;;;;;20.80;99.90;;;;;;5041681;28;20054;-64
2022/08/19 03:47:15;;;;;;;;;;;20.70;99.90;;;;;;5045183;28;19975;-64
2022/08/19 03:49:44;;;;;;;;;;;20.60;99.90;;;;;;5044751;28;20012;-63
2022/08/19 03:52:13;;;;;;;;;;;20.60;99.90;;;;;;5044434;28;19974;-63
2022/08/19 03:54:40;;;;;;;;;;;20.60;99.90;;;;;;5044274;28;19990;-64
2022/08/19 03:57:08;;;;;;;;;;;20.50;99.90;;;;;;5045060;28;19970;-65
2022/08/19 03:59:37;;;;;;;;;;;20.50;99.90;;;;;;5036347;28;19969;-64
2022/08/19 04:02:08;;;;;;;;;;;20.50;99.90;;;;;;5048888;28;20011;-64
2022/08/19 04:04:37;;;;;;;;;;;20.40;99.90;;;;;;5045535;28;19966;-65
2022/08/19 04:07:05;;;;;;;;;;;20.40;99.90;;;;;;5047412;28;20027;-65
2022/08/19 04:09:35;;;;;;;;;;;20.40;99.90;;;;;;5044720;28;20344;-64
2022/08/19 04:12:05;;;;;;;;;;;20.40;99.90;;;;;;5043776;28;19969;-64
2022/08/19 04:14:34;;;;;;;;;;;20.40;99.90;;;;;;5043563;28;20053;-63
2022/08/19 04:17:04;;;;;;;;;;;20.40;99.90;;;;;;5042340;28;19966;-63
2022/08/19 04:19:33;;;;;;;;;;;20.40;99.90;;;;;;5045170;28;19966;-63
2022/08/19 04:22:00;;;;;;;;;;;20.50;99.90;;;;;;5045595;28;20034;-64
2022/08/19 04:24:28;;;;;;;;;;;20.50;99.90;;;;;;5048909;28;19967;-65
2022/08/19 04:26:57;;;;;;;;;;;20.50;99.90;;;;;;5039840;28;19977;-64
2022/08/19 04:29:26;;;;;;;;;;;20.50;99.90;;;;;;5042752;28;19965;-64
2022/08/19 04:31:55;;;;;;;;;;;20.40;99.90;;;;;;5046453;28;19961;-65
2022/08/19 04:34:25;;;;;;;;;;;20.40;99.90;;;;;;5041845;28;19971;-66
2022/08/19 04:36:53;;;;;;;;;;;20.40;99.90;;;;;;5040617;28;20014;-63
2022/08/19 04:39:22;;;;;;;;;;;20.40;99.90;;;;;;5040911;28;20012;-62
2022/08/19 04:44:37;;;;;;;;;;;20.40;99.90;;;;;;5040428;28;20514;-64
2022/08/19 04:47:13;;;;;;;;;;;20.40;99.90;;;;;;5039556;28;21067;-64
2022/08/19 04:49:41;;;;;;;;;;;20.40;99.90;;;;;;5038237;28;19974;-62
2022/08/19 04:52:08;;;;;;;;;;;20.40;99.90;;;;;;5041116;28;20250;-66
2022/08/19 04:54:36;;;;;;;;;;;20.40;99.90;;;;;;5041556;28;21984;-63
2022/08/19 04:57:09;;;;;;;;;;;20.40;99.90;;;;;;5042835;28;20642;-62
2022/08/19 04:59:39;;;;;;;;;;;20.40;99.90;;;;;;5038987;28;19974;-64
2022/08/19 05:02:08;;;;;;;;;;;20.40;99.90;;;;;;5038241;28;20468;-62
2022/08/19 05:04:38;;;;;;;;;;;20.40;99.90;;;;;;5039917;28;19976;-64
2022/08/19 05:07:07;;;;;;;;;;;20.60;99.90;;;;;;5043070;28;19990;-62
2022/08/19 05:09:35;;;;;;;;;;;20.60;99.90;;;;;;5038855;28;19973;-62
2022/08/19 05:12:23;;;;;;;;;;;20.70;99.90;;;;;;5039915;28;20347;-62
2022/08/19 05:14:57;;;;;;;;;;;20.70;99.90;;;;;;5040877;28;20101;-62
2022/08/19 05:17:25;;;;;;;;;;;20.70;99.90;;;;;;5040028;28;19966;-62
2022/08/19 05:22:41;;;;;;;;;;;20.80;99.90;;;;;;5040578;28;19967;-62
2022/08/19 05:25:11;;;;;;;;;;;20.80;99.90;;;;;;5041920;28;19981;-65
2022/08/19 05:27:40;;;;;;;;;;;20.80;99.90;;;;;;5039404;28;19977;-62
2022/08/19 05:30:11;;;;;;;;;;;20.80;99.90;;;;;;5037709;28;20065;-62
2022/08/19 05:32:39;;;;;;;;;;;20.80;99.90;;;;;;5036738;28;19974;-62
2022/08/19 05:35:07;;;;;;;;;;;20.80;99.90;;;;;;5038364;28;20364;-62
2022/08/19 05:37:35;;;;;;;;;;;20.90;99.90;;;;;;5040914;28;19997;-61
2022/08/19 05:40:03;;;;;;;;;;;20.90;99.90;;;;;;5036421;28;20792;-62
2022/08/19 05:42:31;;;;;;;;;;;20.90;99.90;;;;;;5041543;28;20436;-61
2022/08/19 05:44:59;;;;;;;;;;;21.00;99.90;;;;;;5039003;28;19990;-61
2022/08/19 05:47:28;;;;;;;;;;;21.00;99.90;;;;;;5040335;28;20068;-62
2022/08/19 05:49:56;;;;;;;;;;;21.10;99.90;;;;;;5037893;28;19972;-63
2022/08/19 05:52:23;;;;;;;;;;;21.10;99.90;;;;;;5038842;28;19972;-64
2022/08/19 05:54:54;;;;;;;;;;;21.10;99.90;;;;;;5035946;28;19987;-63
2022/08/19 05:57:23;;;;;;;;;;;21.20;99.90;;;;;;5036964;28;20707;-62
2022/08/19 05:59:51;;;;;;;;;;;21.10;99.90;;;;;;5041468;28;19964;-62
2022/08/19 06:02:25;;;;;;;;;;;21.20;99.90;;;;;;5038137;28;20340;-63
2022/08/19 06:04:54;;;;;;;;;;;21.20;99.90;;;;;;5035831;28;20005;-61
2022/08/19 06:07:22;;;;;;;;;;;21.20;99.90;;;;;;5037499;28;20012;-61
2022/08/19 06:09:49;;;;;;;;;;;21.20;99.90;;;;;;5036065;28;20337;-63
2022/08/19 06:12:30;;;;;;;;;;;21.20;99.90;;;;;;5037869;28;20064;-63
2022/08/19 06:14:58;;;;;;;;;;;21.20;99.90;;;;;;5039449;28;20531;-65
2022/08/19 06:17:29;;;;;;;;;;;21.20;99.90;;;;;;5043034;28;20062;-65
2022/08/19 06:19:59;;;;;;;;;;;21.30;99.90;;;;;;5041907;28;20602;-63
2022/08/19 06:22:28;;;;;;;;;;;21.40;99.90;;;;;;5044058;28;19974;-64
2022/08/19 06:24:56;;;;;;;;;;;21.50;99.90;;;;;;5037528;28;20070;-64
2022/08/19 06:27:23;;;;;;;;;;;21.60;99.90;;;;;;5036777;28;20026;-64
2022/08/19 06:29:51;;;;;;;;;;;21.70;99.90;;;;;;5045759;28;20011;-68
2022/08/19 06:32:19;;;;;;;;;;;21.80;99.90;;;;;;5041191;28;20630;-63
2022/08/19 06:34:47;;;;;;;;;;;21.90;99.90;;;;;;5047492;28;19971;-64
2022/08/19 06:37:16;;;;;;;;;;;22.00;99.90;;;;;;5049380;28;21802;-64
2022/08/19 06:39:45;;;;;;;;;;;22.10;99.90;;;;;;5051031;28;20929;-66
2022/08/19 06:42:16;;;;;;;;;;;22.10;99.90;;;;;;5052098;28;20221;-64
2022/08/19 06:44:45;;;;;;;;;;;22.20;99.90;;;;;;5052381;28;20213;-65
2022/08/19 06:47:16;;;;;;;;;;;22.20;99.90;;;;;;5052564;28;20221;-64
2022/08/19 06:50:00;;;;;;;;;;;22.30;99.90;;;;;;5049769;28;20155;-64
2022/08/19 06:52:32;;;;;;;;;;;22.40;99.90;;;;;;5032292;28;25083;-64
2022/08/19 06:55:00;;;;;;;;;;;22.40;99.90;;;;;;5032593;28;20107;-64
2022/08/19 06:57:33;;;;;;;;;;;22.50;99.90;;;;;;5032460;28;20237;-64
2022/08/19 07:00:01;;;;;;;;;;;22.50;99.90;;;;;;5032081;28;20325;-64
2022/08/19 07:02:29;;;;;;;;;;;22.60;99.90;;;;;;5031914;28;20293;-64
2022/08/19 07:04:57;;;;;;;;;;;22.60;99.90;;;;;;5032192;28;20269;-64
2022/08/19 07:07:25;;;;;;;;;;;22.70;99.90;;;;;;5032212;28;20278;-64
2022/08/19 07:09:54;;;;;;;;;;;22.80;99.90;;;;;;5031905;28;20203;-64
2022/08/19 07:12:28;;;;;;;;;;;22.80;99.90;;;;;;5032103;28;20667;-64
2022/08/19 07:14:58;;;;;;;;;;;22.80;99.90;;;;;;5031916;28;20206;-64
2022/08/19 07:17:25;;;;;;;;;;;23.00;99.90;;;;;;5031206;28;20198;-64
2022/08/19 07:19:55;;;;;;;;;;;23.10;99.90;;;;;;5031835;28;20195;-64
2022/08/19 07:22:23;;;;;;;;;;;23.20;99.90;;;;;;5046807;28;20205;-67
2022/08/19 07:24:51;;;;;;;;;;;23.30;99.90;;;;;;5051613;28;20750;-66
2022/08/19 07:27:20;;;;;;;;;;;23.30;99.90;;;;;;5051884;28;20268;-65
2022/08/19 07:29:52;;;;;;;;;;;23.30;99.90;;;;;;5051756;28;20257;-64
2022/08/19 07:32:23;;;;;;;;;;;23.20;99.90;;;;;;5051820;28;20206;-64
2022/08/19 07:34:52;;;;;;;;;;;23.20;99.90;;;;;;5049909;28;20198;-66
2022/08/19 07:37:20;;;;;;;;;;;23.20;99.90;;;;;;5051791;28;20198;-66
2022/08/19 07:39:47;;;;;;;;;;;23.40;99.90;;;;;;5051537;28;20206;-64
2022/08/19 07:42:16;;;;;;;;;;;23.50;99.90;;;;;;5051616;28;20228;-64
2022/08/19 07:44:45;;;;;;;;;;;23.60;99.90;;;;;;5051634;28;20190;-64
2022/08/19 07:47:18;;;;;;;;;;;23.80;99.90;;;;;;5051465;28;20631;-64
2022/08/19 07:50:06;;;;;;;;;;;24.00;99.90;;;;;;5049637;28;20190;-65
2022/08/19 07:52:35;;;;;;;;;;;24.00;99.90;;;;;;5044635;28;20196;-63
2022/08/19 07:55:04;;;;;;;;;;;24.10;99.90;;;;;;5031595;28;20282;-66
2022/08/19 07:57:32;;;;;;;;;;;24.20;99.90;;;;;;5031750;28;20665;-64
2022/08/19 08:00:01;;;;;;;;;;;24.40;99.90;;;;;;5031292;28;20565;-65
2022/08/19 08:02:29;;;;;;;;;;;24.50;99.90;;;;;;5031239;28;20212;-64
2022/08/19 08:10:27;;;;;;;;;;;24.60;99.90;;;;;;5031441;28;20622;-64
2022/08/19 08:12:55;;;;;;;;;;;24.70;99.90;;;;;;5031418;28;20269;-66
2022/08/19 08:15:39;;;;;;;;;;;24.80;99.90;;;;;;5031672;28;20689;-63
2022/08/19 08:18:10;;;;;;;;;;;24.70;99.90;;;;;;5031645;28;20207;-65
2022/08/19 08:20:38;;;;;;;;;;;24.70;99.90;;;;;;5031273;28;20198;-64
2022/08/19 08:23:24;;;;;;;;;;;24.60;99.90;;;;;;5038522;28;20255;-64
2022/08/19 08:25:55;;;;;;;;;;;24.60;99.90;;;;;;5051521;28;20292;-64
2022/08/19 08:28:25;;;;;;;;;;;24.50;99.90;;;;;;5052953;28;20595;-64
2022/08/19 08:30:58;;;;;;;;;;;24.60;99.90;;;;;;5054843;28;20643;-64
2022/08/19 08:33:28;;;;;;;;;;;24.60;99.90;;;;;;5054664;28;20199;-64
2022/08/19 08:36:01;;;;;;;;;;;24.80;99.90;;;;;;5054924;28;20621;-64
2022/08/19 08:38:31;;;;;;;;;;;24.90;99.90;;;;;;5037517;28;20234;-64
2022/08/19 08:41:09;;;;;;;;;;;25.00;99.90;;;;;;5034716;28;20230;-64
2022/08/19 08:43:38;;;;;;;;;;;25.20;99.90;;;;;;5034709;28;20199;-64
2022/08/19 08:46:09;;;;;;;;;;;25.40;99.90;;;;;;5034742;28;20199;-64
2022/08/19 08:48:41;;;;;;;;;;;25.60;99.90;;;;;;5034876;28;20203;-67
2022/08/19 08:51:11;;;;;;;;;;;25.70;99.90;;;;;;5034546;28;20194;-63
2022/08/19 08:53:38;;;;;;;;;;;26.10;99.90;;;;;;5034644;28;20679;-64
2022/08/19 08:56:12;;;;;;;;;;;25.90;99.90;;;;;;5034660;28;20198;-64
2022/08/19 08:58:47;;;;;;;;;;;26.10;99.90;;;;;;5034548;28;20230;-65
2022/08/19 09:01:22;;;;;;;;;;;26.30;99.90;;;;;;5034419;28;20555;-64
2022/08/19 09:03:55;;;;;;;;;;;26.40;99.90;;;;;;5072888;22;20238;-63
2022/08/19 09:06:32;;;;;;;;;;;26.60;99.90;;;;;;5053638;28;20198;-63
2022/08/19 09:09:03;;;;;;;;;;;26.80;99.90;;;;;;5054669;28;20213;-63
2022/08/19 09:11:59;;;;;;;;;;;26.90;99.90;;;;;;5055849;28;20198;-63
2022/08/19 09:14:34;;;;;;;;;;;27.00;99.90;;;;;;5040834;28;20253;-63
2022/08/19 09:17:30;;;;;;;;;;;27.00;99.90;;;;;;5046656;28;20273;-63
2022/08/19 09:20:04;;;;;;;;;;;26.90;99.90;;;;;;5045041;28;20675;-63
2022/08/19 09:22:32;;;;;;;;;;;27.20;99.90;;;;;;5034277;28;20643;-63
2022/08/19 09:25:00;;;;;;;;;;;27.50;99.90;;;;;;5033468;28;20252;-63
2022/08/19 09:27:28;;;;;;;;;;;27.60;99.90;;;;;;5034116;28;20565;-63
2022/08/19 09:30:11;;;;;;;;;;;27.70;99.90;;;;;;5033864;28;20258;-63
2022/08/19 09:32:42;;;;;;;;;;;27.70;99.90;;;;;;5032875;28;20564;-63
2022/08/19 09:35:10;;;;;;;;;;;27.80;99.90;;;;;;5033860;28;20191;-63
2022/08/19 09:37:38;;;;;;;;;;;27.90;99.90;;;;;;5033807;28;20261;-63
2022/08/19 09:40:07;;;;;;;;;;;27.80;99.90;;;;;;5032036;28;20206;-63
2022/08/19 09:42:38;;;;;;;;;;;27.70;99.90;;;;;;5033451;28;20286;-63
2022/08/19 09:45:21;;;;;;;;;;;28.00;99.90;;;;;;5033629;28;20210;-63
2022/08/19 09:47:50;;;;;;;;;;;28.10;99.90;;;;;;5033740;28;20202;-63
2022/08/19 09:50:21;;;;;;;;;;;27.90;99.90;;;;;;5033501;28;20690;-63
2022/08/19 09:52:48;;;;;;;;;;;28.00;99.90;;;;;;5033390;28;20632;-63
2022/08/19 09:55:24;;;;;;;;;;;28.10;99.90;;;;;;5033057;28;20201;-63
2022/08/19 09:58:00;;;;;;;;;;;28.20;99.90;;;;;;5033555;28;20195;-62
2022/08/19 10:00:28;;;;;;;;;;;28.40;99.90;;;;;;5033352;28;20203;-63
2022/08/19 10:02:57;;;;;;;;;;;28.70;99.90;;;;;;5032960;28;20211;-63
2022/08/19 10:08:11;;;;;;;;;;;29.30;99.90;;;;;;5033388;28;20253;-63
2022/08/19 10:10:42;;;;;;;;;;;29.00;99.80;;;;;;5032588;28;20202;-63
2022/08/19 10:13:13;;;;;;;;;;;28.80;99.70;;;;;;5033203;28;20225;-63
2022/08/19 10:15:40;;;;;;;;;;;28.70;99.90;;;;;;5033133;28;20194;-63
2022/08/19 10:18:16;;;;;;;;;;;28.60;99.90;;;;;;5033094;28;20214;-63
2022/08/19 10:20:45;;;;;;;;;;;28.70;99.90;;;;;;5032854;28;20204;-63
2022/08/19 10:23:18;;;;;;;;;;;28.40;99.90;;;;;;5032848;28;20198;-63
2022/08/19 10:25:47;;;;;;;;;;;28.30;99.90;;;;;;5032806;28;20214;-63
2022/08/19 10:28:15;;;;;;;;;;;28.30;99.80;;;;;;5032516;28;20202;-63
2022/08/19 10:30:46;;;;;;;;;;;28.50;99.90;;;;;;5032838;28;20293;-63
2022/08/19 10:33:15;;;;;;;;;;;28.70;99.50;;;;;;5032709;28;20595;-64
2022/08/19 10:36:05;;;;;;;;;;;29.10;99.60;;;;;;5032696;28;20266;-63
2022/08/19 10:38:33;;;;;;;;;;;29.40;98.80;;;;;;5032728;28;20206;-63
2022/08/19 10:41:07;;;;;;;;;;;29.70;97.80;;;;;;5032523;28;20202;-63
2022/08/19 10:43:36;;;;;;;;;;;29.80;98.10;;;;;;5031415;28;20198;-63
2022/08/19 10:46:05;;;;;;;;;;;30.00;98.00;;;;;;5032632;28;20200;-63
2022/08/19 10:48:42;;;;;;;;;;;29.80;98.00;;;;;;5032543;28;20773;-63
2022/08/19 10:53:56;;;;;;;;;;;29.70;98.00;;;;;;5032125;28;20213;-62
2022/08/19 10:59:09;;;;;;;;;;;29.70;97.60;;;;;;5032779;28;20256;-63
2022/08/19 11:01:37;;;;;;;;;;;29.90;97.50;;;;;;5032067;28;20203;-63
2022/08/19 11:04:09;;;;;;;;;;;29.80;98.00;;;;;;5031904;28;20230;-63
2022/08/19 11:06:38;;;;;;;;;;;29.30;97.40;;;;;;5032283;28;20589;-63
2022/08/19 11:09:06;;;;;;;;;;;29.40;97.00;;;;;;5032166;28;20663;-64
2022/08/19 11:11:40;;;;;;;;;;;29.60;96.80;;;;;;5031513;28;20670;-63
2022/08/19 11:14:09;;;;;;;;;;;29.70;96.30;;;;;;5031909;28;20623;-64
2022/08/19 11:16:38;;;;;;;;;;;29.80;96.00;;;;;;5032276;28;20210;-63
2022/08/19 11:19:08;;;;;;;;;;;30.00;95.90;;;;;;5032178;28;20202;-63
2022/08/19 11:21:37;;;;;;;;;;;30.10;95.00;;;;;;5031265;28;20733;-63
2022/08/19 11:24:06;;;;;;;;;;;30.20;95.80;;;;;;5031852;28;20195;-63
2022/08/19 11:26:35;;;;;;;;;;;29.80;95.10;;;;;;5031544;28;20639;-63
2022/08/19 11:29:03;;;;;;;;;;;29.50;95.40;;;;;;5031924;28;20252;-63
2022/08/19 11:31:32;;;;;;;;;;;29.70;95.70;;;;;;5031724;28;20675;-63
2022/08/19 11:34:01;;;;;;;;;;;29.90;96.00;;;;;;5031504;28;20205;-64
2022/08/19 11:36:32;;;;;;;;;;;30.30;95.60;;;;;;5031759;28;20202;-63
2022/08/19 11:39:00;;;;;;;;;;;30.80;95.40;;;;;;5031875;28;20619;-63
2022/08/19 11:41:28;;;;;;;;;;;31.00;94.30;;;;;;5031907;28;20213;-63
2022/08/19 11:43:56;;;;;;;;;;;31.60;93.70;;;;;;5032050;28;20207;-64
2022/08/19 11:46:25;;;;;;;;;;;31.90;93.00;;;;;;5031907;28;20202;-63
2022/08/19 11:48:54;;;;;;;;;;;32.10;93.30;;;;;;5031635;28;20218;-63
2022/08/19 11:51:24;;;;;;;;;;;32.10;92.20;;;;;;5031506;28;20202;-63
2022/08/19 11:53:54;;;;;;;;;;;32.20;91.50;;;;;;5032079;28;20198;-64
2022/08/19 11:56:22;;;;;;;;;;;32.10;91.70;;;;;;5031637;28;20210;-63
2022/08/19 11:58:49;;;;;;;;;;;32.30;91.60;;;;;;5031734;28;20206;-64
2022/08/19 12:01:19;;;;;;;;;;;32.30;92.20;;;;;;5031715;28;20206;-64
2022/08/19 12:03:47;;;;;;;;;;;32.70;91.20;;;;;;5033285;28;20709;-63
2022/08/19 12:06:16;;;;;;;;;;;32.90;90.60;;;;;;5035029;28;20658;-64
2022/08/19 12:08:45;;;;;;;;;;;33.20;91.00;;;;;;5035791;28;20257;-63
2022/08/19 12:11:14;;;;;;;;;;;32.80;90.20;;;;;;5035319;28;20206;-64
2022/08/19 12:13:45;;;;;;;;;;;32.90;90.30;;;;;;5035415;28;20198;-64
2022/08/19 12:16:15;;;;;;;;;;;32.60;90.80;;;;;;5035201;28;20198;-64
2022/08/19 12:18:43;;;;;;;;;;;32.70;90.00;;;;;;5034868;28;20206;-64
2022/08/19 12:21:13;;;;;;;;;;;33.00;88.30;;;;;;5034847;28;20202;-64
2022/08/19 12:23:41;;;;;;;;;;;33.00;86.40;;;;;;5035195;28;20194;-64
2022/08/19 12:26:10;;;;;;;;;;;32.90;87.20;;;;;;5035017;28;20253;-64
2022/08/19 12:28:39;;;;;;;;;;;32.30;88.20;;;;;;5035133;28;20211;-64
2022/08/19 12:31:07;;;;;;;;;;;32.50;88.40;;;;;;5046399;28;20198;-63
2022/08/19 12:33:35;;;;;;;;;;;32.50;86.70;;;;;;5055025;28;20198;-63
2022/08/19 12:36:04;;;;;;;;;;;32.70;86.30;;;;;;5054633;28;20206;-63
2022/08/19 12:38:34;;;;;;;;;;;32.40;87.50;;;;;;5054941;28;20205;-64
2022/08/19 12:41:06;;;;;;;;;;;31.90;87.90;;;;;;5049341;28;20198;-63
2022/08/19 12:43:34;;;;;;;;;;;31.60;88.80;;;;;;5034820;28;20587;-64
2022/08/19 12:46:04;;;;;;;;;;;32.00;88.40;;;;;;5034768;28;20258;-63
2022/08/19 12:48:31;;;;;;;;;;;32.40;86.10;;;;;;5034959;28;20210;-63
2022/08/19 12:51:06;;;;;;;;;;;32.50;86.50;;;;;;5034686;28;20209;-63
2022/08/19 12:53:35;;;;;;;;;;;32.60;84.90;;;;;;5034788;28;20199;-63
2022/08/19 12:56:06;;;;;;;;;;;32.60;83.30;;;;;;5033959;28;20603;-63
2022/08/19 12:58:41;;;;;;;;;;;32.40;81.10;;;;;;5034565;28;20206;-63
2022/08/19 13:01:17;;;;;;;;;;;32.70;81.80;;;;;;5034519;28;20199;-63
2022/08/19 13:03:51;;;;;;;;;;;32.80;82.70;;;;;;5034245;28;20214;-63
2022/08/19 13:06:19;;;;;;;;;;;32.70;82.30;;;;;;5034355;28;20198;-63
2022/08/19 13:08:47;;;;;;;;;;;31.90;84.20;;;;;;5034080;28;20206;-63
2022/08/19 13:11:17;;;;;;;;;;;31.60;84.10;;;;;;5033655;28;20268;-63
2022/08/19 13:13:47;;;;;;;;;;;31.80;81.70;;;;;;5048687;28;20209;-63
2022/08/19 13:16:15;;;;;;;;;;;32.10;82.50;;;;;;5054401;28;20624;-64
2022/08/19 13:18:46;;;;;;;;;;;32.60;83.00;;;;;;5054154;28;20608;-63
2022/08/19 13:21:14;;;;;;;;;;;33.30;81.20;;;;;;5053927;28;20198;-63
2022/08/19 13:23:42;;;;;;;;;;;34.10;80.10;;;;;;5054068;28;20245;-63
2022/08/19 13:26:11;;;;;;;;;;;34.70;80.00;;;;;;5051209;28;20223;-63
2022/08/19 13:34:13;;;;;;;;;;;34.50;79.30;;;;;;5014651;28;20245;-64
2022/08/19 13:37:08;;;;;;;;;;;34.70;78.10;;;;;;5014023;28;20297;-63
2022/08/19 13:39:40;;;;;;;;;;;34.40;78.30;;;;;;5013704;28;20252;-64
2022/08/19 13:42:09;;;;;;;;;;;34.40;77.60;;;;;;5013865;28;20184;-64
2022/08/19 13:44:36;;;;;;;;;;;34.60;77.80;;;;;;5032376;28;20190;-64
2022/08/19 13:47:06;;;;;;;;;;;34.10;75.70;;;;;;5033902;28;20186;-63
2022/08/19 13:49:36;;;;;;;;;;;34.30;75.40;;;;;;5033536;28;20167;-64
2022/08/19 13:52:05;;;;;;;;;;;34.20;75.00;;;;;;5033586;28;20162;-63
2022/08/19 13:54:33;;;;;;;;;;;34.20;75.00;;;;;;5033556;28;20162;-64
2022/08/19 13:57:00;;;;;;;;;;;34.50;74.80;;;;;;5033479;28;20173;-63
2022/08/19 13:59:28;;;;;;;;;;;34.70;73.50;;;;;;5033278;28;20223;-63
2022/08/19 14:01:58;;;;;;;;;;;34.90;71.60;;;;;;5033341;28;20183;-64
2022/08/19 14:04:26;;;;;;;;;;;34.80;71.90;;;;;;5033146;28;20210;-64
2022/08/19 14:06:55;;;;;;;;;;;34.80;70.90;;;;;;5033315;28;20224;-64
2022/08/19 14:09:23;;;;;;;;;;;34.70;71.00;;;;;;5033335;28;20181;-65
2022/08/19 14:11:51;;;;;;;;;;;34.70;70.60;;;;;;5033183;28;20174;-64
2022/08/19 14:14:19;;;;;;;;;;;34.80;71.40;;;;;;5032709;28;20190;-64
2022/08/19 14:16:46;;;;;;;;;;;34.70;71.30;;;;;;5033043;28;20223;-63
2022/08/19 14:19:14;;;;;;;;;;;34.80;70.30;;;;;;5032789;28;20231;-64
2022/08/19 14:21:42;;;;;;;;;;;34.80;70.90;;;;;;5033267;28;20642;-64
2022/08/19 14:24:11;;;;;;;;;;;35.10;70.40;;;;;;5032886;28;20388;-64
2022/08/19 14:26:42;;;;;;;;;;;34.80;70.10;;;;;;5032768;28;20184;-65
2022/08/19 14:29:10;;;;;;;;;;;34.90;69.40;;;;;;5033257;28;20177;-66
2022/08/19 14:31:43;;;;;;;;;;;35.10;69.50;;;;;;5032800;28;20185;-64
2022/08/19 14:34:12;;;;;;;;;;;35.20;69.30;;;;;;5032835;28;20211;-65
2022/08/19 14:36:41;;;;;;;;;;;35.40;69.50;;;;;;5033205;28;20206;-66
2022/08/19 14:39:11;;;;;;;;;;;35.20;69.30;;;;;;5031616;28;20205;-64
2022/08/19 14:41:40;;;;;;;;;;;35.20;67.90;;;;;;5025879;28;20699;-64
2022/08/19 14:44:12;;;;;;;;;;;35.30;67.30;;;;;;5019389;28;20574;-64
2022/08/19 14:46:40;;;;;;;;;;;35.40;67.00;;;;;;5018704;28;20232;-64
2022/08/19 14:49:16;;;;;;;;;;;35.20;66.70;;;;;;5023677;28;20208;-65
2022/08/19 14:51:46;;;;;;;;;;;35.30;66.90;;;;;;5022341;28;20559;-64
2022/08/19 14:54:15;;;;;;;;;;;34.90;66.90;;;;;;5023328;28;20604;-64
2022/08/19 14:56:43;;;;;;;;;;;35.20;67.60;;;;;;5023277;28;20202;-64
2022/08/19 14:59:11;;;;;;;;;;;34.70;68.10;;;;;;5020675;28;20182;-65